createdAt,value
2023-01-29T00:01:14.775Z,1.95
2023-01-29T00:03:46.764Z,1.83
2023-01-29T00:06:19.120Z,1.82
2023-01-29T00:08:49.199Z,1.85
2023-01-29T00:11:20.484Z,1.87
2023-01-29T00:13:52.941Z,1.86
2023-01-29T00:16:23.145Z,1.83
2023-01-29T00:18:53.043Z,1.75
2023-01-29T00:21:25.020Z,1.82
2023-01-29T00:23:57.042Z,1.68
2023-01-29T00:26:27.499Z,1.78
2023-01-29T00:29:00.613Z,1.70
2023-01-29T00:31:30.739Z,1.57
2023-01-29T00:34:00.935Z,1.70
2023-01-29T00:36:33.971Z,1.60
2023-01-29T00:39:10.964Z,1.66
2023-01-29T00:42:05.577Z,1.73
2023-01-29T00:44:50.491Z,1.57
2023-01-29T00:47:33.696Z,1.66
2023-01-29T00:50:04.865Z,1.55
2023-01-29T00:52:36.542Z,1.50
2023-01-29T00:55:10.227Z,1.50
2023-01-29T00:57:41.733Z,1.57
2023-01-29T01:00:18.821Z,1.66
2023-01-29T01:03:01.497Z,1.73
2023-01-29T01:05:31.523Z,1.68
2023-01-29T01:08:01.634Z,1.69
2023-01-29T01:10:31.980Z,1.65
2023-01-29T01:13:04.505Z,1.74
2023-01-29T01:15:40.610Z,1.61
2023-01-29T01:18:10.796Z,1.64
2023-01-29T01:20:40.705Z,1.58
2023-01-29T01:23:10.645Z,1.66
2023-01-29T01:25:40.510Z,1.64
2023-01-29T01:28:14.644Z,1.43
2023-01-29T01:30:47.112Z,1.52
2023-01-29T01:33:17.189Z,1.57
2023-01-29T01:35:48.360Z,1.49
2023-01-29T01:38:18.224Z,1.41
2023-01-29T01:40:49.399Z,1.39
2023-01-29T01:43:19.397Z,1.51
2023-01-29T01:45:51.877Z,1.38
2023-01-29T01:48:27.609Z,1.47
2023-01-29T01:51:04.303Z,1.53
2023-01-29T01:53:40.034Z,1.41
2023-01-29T01:56:14.816Z,1.37
2023-01-29T01:58:51.044Z,1.40
2023-01-29T02:01:30.746Z,1.41
2023-01-29T02:04:19.862Z,1.44
2023-01-29T02:07:03.540Z,1.37
2023-01-29T02:09:39.617Z,1.30
2023-01-29T02:12:13.611Z,1.33
2023-01-29T02:14:45.331Z,1.34
2023-01-29T02:17:21.762Z,1.38
2023-01-29T02:20:05.299Z,1.45
2023-01-29T02:22:59.356Z,1.46
2023-01-29T02:26:01.958Z,1.32
2023-01-29T02:28:49.115Z,1.36
2023-01-29T02:31:31.297Z,1.33
2023-01-29T02:34:16.302Z,1.22
2023-01-29T02:36:53.919Z,1.13
2023-01-29T02:39:36.480Z,1.34
2023-01-29T02:42:18.071Z,1.38
2023-01-29T02:44:59.569Z,1.24
2023-01-29T02:47:38.768Z,1.28
2023-01-29T02:50:20.495Z,1.31
2023-01-29T02:53:02.474Z,1.30
2023-01-29T02:55:39.519Z,1.26
2023-01-29T02:58:16.791Z,1.28
2023-01-29T03:00:52.128Z,1.26
2023-01-29T03:03:27.717Z,1.26
2023-01-29T03:06:06.377Z,1.25
2023-01-29T03:08:45.662Z,1.31
2023-01-29T03:11:19.266Z,1.28
2023-01-29T03:13:55.939Z,1.25
2023-01-29T03:16:35.858Z,1.32
2023-01-29T03:19:12.310Z,1.32
2023-01-29T03:21:59.227Z,1.30
2023-01-29T03:24:53.718Z,1.26
2023-01-29T03:27:45.046Z,1.36
2023-01-29T03:30:32.877Z,1.28
2023-01-29T03:33:22.036Z,1.26
2023-01-29T03:36:00.906Z,1.27
2023-01-29T03:38:32.526Z,1.25
2023-01-29T03:41:12.075Z,1.20
2023-01-29T03:43:53.962Z,1.21
2023-01-29T03:46:31.565Z,1.26
2023-01-29T03:49:15.133Z,1.11
2023-01-29T03:51:59.165Z,1.26
2023-01-29T03:54:42.198Z,1.31
2023-01-29T03:57:23.099Z,1.24
2023-01-29T04:00:05.294Z,1.26
2023-01-29T04:03:00.285Z,1.17
2023-01-29T04:05:41.122Z,1.29
2023-01-29T04:08:25.585Z,1.33
2023-01-29T04:11:02.004Z,1.32
2023-01-29T04:13:36.426Z,1.24
2023-01-29T04:16:12.548Z,1.28
2023-01-29T04:19:00.471Z,1.07
2023-01-29T04:21:39.026Z,1.04
2023-01-29T04:24:11.469Z,1.25
2023-01-29T04:26:58.864Z,1.28
2023-01-29T04:29:43.274Z,1.31
2023-01-29T04:32:25.911Z,1.29
2023-01-29T04:35:09.090Z,1.26
2023-01-29T04:37:52.714Z,1.28
2023-01-29T04:40:29.394Z,1.29
2023-01-29T04:43:09.638Z,1.15
2023-01-29T04:45:52.537Z,1.33
2023-01-29T04:48:29.084Z,1.30
2023-01-29T04:51:09.240Z,1.36
2023-01-29T04:53:52.891Z,1.35
2023-01-29T04:56:32.805Z,1.33
2023-01-29T04:59:08.020Z,1.13
2023-01-29T05:01:40.697Z,1.22
2023-01-29T05:04:17.256Z,1.09
2023-01-29T05:06:49.424Z,1.13
2023-01-29T05:09:23.160Z,1.21
2023-01-29T05:11:53.624Z,1.39
2023-01-29T05:14:27.709Z,1.38
2023-01-29T05:17:01.472Z,1.34
2023-01-29T05:19:31.589Z,1.37
2023-01-29T05:22:03.096Z,1.33
2023-01-29T05:24:35.565Z,1.37
2023-01-29T05:27:18.727Z,1.27
2023-01-29T05:29:50.077Z,1.28
2023-01-29T05:32:20.149Z,1.25
2023-01-29T05:34:50.017Z,1.13
2023-01-29T05:37:19.846Z,1.17
2023-01-29T05:39:52.311Z,1.25
2023-01-29T05:42:22.389Z,1.22
2023-01-29T05:44:52.688Z,1.34
2023-01-29T05:47:23.039Z,1.20
2023-01-29T05:49:52.924Z,1.22
2023-01-29T05:52:22.741Z,1.24
2023-01-29T05:54:55.194Z,1.15
2023-01-29T05:57:24.997Z,1.26
2023-01-29T05:59:54.842Z,1.31
2023-01-29T06:02:25.256Z,1.30
2023-01-29T06:04:55.150Z,1.32
2023-01-29T06:07:24.991Z,1.22
2023-01-29T06:09:57.429Z,0.99
2023-01-29T06:12:27.276Z,1.12
2023-01-29T06:14:57.214Z,1.05
2023-01-29T06:17:27.084Z,1.01
2023-01-29T06:19:56.956Z,1.02
2023-01-29T06:22:26.856Z,1.08
2023-01-29T06:24:59.330Z,1.10
2023-01-29T06:27:29.361Z,1.24
2023-01-29T06:29:59.236Z,1.11
2023-01-29T06:32:30.088Z,1.14
2023-01-29T06:34:59.933Z,1.24
2023-01-29T06:37:29.766Z,1.24
2023-01-29T06:40:02.172Z,1.24
2023-01-29T06:42:32.189Z,1.22
2023-01-29T06:45:02.050Z,1.23
2023-01-29T06:47:31.886Z,1.12
2023-01-29T06:50:02.054Z,1.21
2023-01-29T06:52:31.973Z,1.24
2023-01-29T06:55:04.911Z,1.09
2023-01-29T06:57:34.736Z,1.00
2023-01-29T07:00:04.667Z,1.18
2023-01-29T07:02:34.653Z,1.05
2023-01-29T07:05:04.520Z,1.06
2023-01-29T07:07:34.384Z,0.91
2023-01-29T07:10:07.662Z,1.04
2023-01-29T07:12:37.494Z,1.00
2023-01-29T07:15:08.649Z,0.91
2023-01-29T07:17:38.482Z,1.07
2023-01-29T07:20:09.820Z,1.04
2023-01-29T07:22:39.684Z,1.03
2023-01-29T07:25:12.790Z,1.04
2023-01-29T07:27:42.698Z,1.19
2023-01-29T07:30:14.298Z,1.13
2023-01-29T07:32:44.378Z,1.14
2023-01-29T07:35:17.806Z,1.15
2023-01-29T07:37:47.807Z,1.35
2023-01-29T07:40:20.820Z,1.34
2023-01-29T07:42:50.807Z,1.50
2023-01-29T07:45:20.910Z,1.67
2023-01-29T07:47:55.223Z,1.54
2023-01-29T07:50:25.592Z,1.57
2023-01-29T07:52:57.500Z,1.45
2023-01-29T07:55:30.388Z,1.35
2023-01-29T07:58:01.741Z,1.49
2023-01-29T08:00:33.021Z,1.54
2023-01-29T08:03:07.830Z,1.43
2023-01-29T08:05:37.705Z,1.51
2023-01-29T08:08:08.119Z,1.36
2023-01-29T08:10:42.877Z,1.34
2023-01-29T08:13:12.840Z,1.46
2023-01-29T08:15:45.887Z,1.61
2023-01-29T08:18:16.819Z,1.66
2023-01-29T08:20:46.699Z,1.70
2023-01-29T08:23:19.149Z,1.72
2023-01-29T08:25:51.717Z,1.77
2023-01-29T08:28:21.659Z,1.69
2023-01-29T08:30:51.531Z,1.72
2023-01-29T08:33:29.848Z,1.59
2023-01-29T08:36:07.612Z,1.61
2023-01-29T08:38:38.981Z,1.80
2023-01-29T08:41:11.925Z,1.93
2023-01-29T08:43:42.249Z,1.93
2023-01-29T08:46:12.485Z,1.85
2023-01-29T08:48:42.419Z,2.03
2023-01-29T08:51:12.589Z,2.11
2023-01-29T08:53:42.520Z,1.90
2023-01-29T08:56:16.395Z,1.93
2023-01-29T08:58:46.564Z,2.10
2023-01-29T09:01:17.734Z,2.04
2023-01-29T09:03:47.651Z,2.26
2023-01-29T09:06:17.985Z,2.14
2023-01-29T09:08:48.287Z,2.30
2023-01-29T09:11:20.702Z,2.36
2023-01-29T09:13:50.558Z,2.54
2023-01-29T09:16:20.453Z,2.51
2023-01-29T09:18:50.321Z,2.20
2023-01-29T09:21:20.259Z,2.42
2023-01-29T09:23:50.133Z,2.05
2023-01-29T09:26:22.756Z,1.99
2023-01-29T09:28:52.600Z,2.25
2023-01-29T09:31:22.602Z,2.46
2023-01-29T09:33:52.547Z,2.40
2023-01-29T09:36:22.445Z,2.02
2023-01-29T09:38:52.330Z,2.24
2023-01-29T09:41:42.001Z,2.10
2023-01-29T09:44:21.735Z,2.52
2023-01-29T09:46:56.833Z,2.82
2023-01-29T09:49:32.401Z,2.84
2023-01-29T09:52:09.323Z,2.87
2023-01-29T09:54:52.698Z,2.73
2023-01-29T09:57:33.448Z,2.46
2023-01-29T10:00:03.479Z,2.83
2023-01-29T10:02:57.921Z,2.98
2023-01-29T10:05:51.146Z,2.85
2023-01-29T10:08:53.253Z,3.26
2023-01-29T10:11:40.152Z,3.45
2023-01-29T10:14:22.921Z,3.26
2023-01-29T10:22:09.865Z,2.75
2023-01-29T10:25:07.539Z,3.05
2023-01-29T10:27:59.709Z,3.25
2023-01-29T10:34:39.579Z,3.55
2023-01-29T10:37:24.441Z,3.71
2023-01-29T10:40:07.753Z,3.52
2023-01-29T10:43:03.652Z,3.76
2023-01-29T10:45:55.914Z,3.73
2023-01-29T10:48:53.159Z,3.95
2023-01-29T10:51:41.545Z,4.06
2023-01-29T10:54:36.729Z,3.96
2023-01-29T10:57:40.486Z,3.91
2023-01-29T11:05:04.042Z,3.56
2023-01-29T11:19:31.890Z,3.83
2023-01-29T11:23:01.479Z,4.36
2023-01-29T11:29:55.753Z,7.32
2023-01-29T11:32:37.048Z,6.57
2023-01-29T11:35:22.402Z,7.33
2023-01-29T11:37:55.560Z,7.27
2023-01-29T11:40:38.995Z,8.41
2023-01-29T11:43:23.803Z,10.01
2023-01-29T11:45:57.366Z,11.37
2023-01-29T11:48:36.709Z,11.35
2023-01-29T11:51:07.011Z,10.23
2023-01-29T11:53:47.455Z,11.67
2023-01-29T11:56:25.745Z,11.87
2023-01-29T11:58:58.197Z,10.32
2023-01-29T12:01:37.061Z,11.75
2023-01-29T12:04:20.600Z,11.68
2023-01-29T12:06:54.682Z,15.82
2023-01-29T12:09:30.168Z,16.28
2023-01-29T12:12:21.380Z,16.81
2023-01-29T12:15:19.663Z,17.47
2023-01-29T12:18:01.372Z,16.01
2023-01-29T12:20:40.547Z,15.65
2023-01-29T12:23:28.261Z,15.73
2023-01-29T12:30:34.732Z,8.58
2023-01-29T12:33:17.469Z,7.65
2023-01-29T12:35:54.633Z,6.95
2023-01-29T12:38:26.795Z,6.94
2023-01-29T12:41:02.735Z,5.82
2023-01-29T12:43:42.811Z,6.63
2023-01-29T12:46:25.253Z,6.16
2023-01-29T12:49:02.166Z,5.72
2023-01-29T12:51:39.926Z,4.90
2023-01-29T12:54:15.801Z,5.03
2023-01-29T12:56:49.867Z,5.48
2023-01-29T12:59:29.802Z,5.86
2023-01-29T13:02:05.435Z,5.30
2023-01-29T13:04:44.207Z,5.95
2023-01-29T13:07:20.228Z,5.59
2023-01-29T13:09:58.678Z,5.26
2023-01-29T13:12:29.799Z,5.35
2023-01-29T13:15:05.599Z,5.58
2023-01-29T13:17:42.133Z,5.35
2023-01-29T13:20:22.407Z,5.49
2023-01-29T13:22:55.794Z,5.75
2023-01-29T13:25:25.655Z,5.25
2023-01-29T13:27:56.447Z,6.11
2023-01-29T13:30:32.395Z,5.49
2023-01-29T13:33:15.862Z,5.38
2023-01-29T13:35:49.669Z,5.76
2023-01-29T13:38:29.579Z,5.97
2023-01-29T13:41:04.547Z,5.95
2023-01-29T13:43:40.859Z,5.61
2023-01-29T13:46:15.113Z,5.33
2023-01-29T13:48:47.944Z,5.65
2023-01-29T13:51:25.672Z,5.29
2023-01-29T13:53:59.918Z,5.33
2023-01-29T13:56:51.945Z,5.24
2023-01-29T13:59:27.151Z,5.54
2023-01-29T14:02:06.009Z,5.80
2023-01-29T14:04:35.968Z,5.01
2023-01-29T14:07:53.590Z,4.80
2023-01-29T14:10:26.423Z,5.49
2023-01-29T14:12:57.733Z,5.26
2023-01-29T14:15:33.917Z,4.87
2023-01-29T14:18:26.950Z,4.86
2023-01-29T14:21:07.503Z,4.89
2023-01-29T14:23:46.819Z,4.93
2023-01-29T14:26:31.559Z,4.84
2023-01-29T14:29:09.515Z,4.73
2023-01-29T14:31:44.854Z,4.82
2023-01-29T14:34:25.042Z,5.09
2023-01-29T14:36:59.375Z,4.73
2023-01-29T14:39:39.591Z,4.76
2023-01-29T14:42:26.890Z,4.42
2023-01-29T14:45:23.960Z,4.40
2023-01-29T14:48:20.196Z,4.15
2023-01-29T14:50:57.548Z,4.11
2023-01-29T14:53:47.372Z,4.23
2023-01-29T14:56:27.847Z,4.00
2023-01-29T14:59:07.961Z,3.63
2023-01-29T15:01:42.473Z,4.14
2023-01-29T15:04:23.552Z,3.85
2023-01-29T15:07:02.509Z,3.92
2023-01-29T15:09:42.320Z,3.84
2023-01-29T15:12:26.942Z,3.89
2023-01-29T15:15:10.639Z,3.85
2023-01-29T15:17:55.064Z,3.76
2023-01-29T15:20:31.474Z,3.70
2023-01-29T15:23:03.337Z,3.98
2023-01-29T15:25:39.795Z,3.83
2023-01-29T15:28:14.312Z,3.73
2023-01-29T15:30:45.234Z,3.62
2023-01-29T15:33:17.833Z,3.56
2023-01-29T15:35:51.629Z,3.48
2023-01-29T15:38:26.789Z,3.58
2023-01-29T15:40:59.031Z,3.52
2023-01-29T15:43:33.848Z,3.29
2023-01-29T15:46:08.709Z,3.13
2023-01-29T15:48:43.336Z,3.08
2023-01-29T15:51:20.663Z,2.92
2023-01-29T15:53:55.621Z,2.90
2023-01-29T15:56:32.045Z,2.88
2023-01-29T15:59:09.850Z,3.11
2023-01-29T16:01:39.971Z,3.04
2023-01-29T16:04:17.779Z,2.91
2023-01-29T16:06:50.402Z,3.01
2023-01-29T16:09:23.839Z,2.96
2023-01-29T16:11:56.710Z,2.80
2023-01-29T16:14:32.679Z,2.61
2023-01-29T16:17:14.324Z,2.79
2023-01-29T16:19:44.210Z,2.69
2023-01-29T16:22:14.158Z,2.55
2023-01-29T16:24:47.185Z,2.56
2023-01-29T16:27:17.740Z,2.48
2023-01-29T16:29:50.796Z,2.31
2023-01-29T16:32:22.667Z,2.34
2023-01-29T16:34:59.642Z,2.30
2023-01-29T16:37:33.033Z,2.37
2023-01-29T16:40:03.577Z,2.36
2023-01-29T16:42:36.014Z,2.13
2023-01-29T16:45:27.733Z,2.21
2023-01-29T16:48:29.092Z,2.04
2023-01-29T16:51:07.154Z,1.93
2023-01-29T16:53:38.573Z,2.02
2023-01-29T16:56:13.920Z,2.10
2023-01-29T16:58:43.928Z,1.90
2023-01-29T17:01:17.457Z,2.02
2023-01-29T17:04:01.010Z,1.86
2023-01-29T17:06:34.093Z,1.80
2023-01-29T17:09:05.449Z,1.60
2023-01-29T17:11:40.240Z,1.49
2023-01-29T17:14:11.874Z,1.56
2023-01-29T17:16:56.092Z,1.45
2023-01-29T17:19:30.263Z,1.58
2023-01-29T17:22:04.791Z,1.60
2023-01-29T17:24:34.815Z,1.69
2023-01-29T17:27:05.196Z,1.69
2023-01-29T17:29:36.119Z,1.43
2023-01-29T17:32:09.188Z,1.39
2023-01-29T17:34:40.186Z,1.49
2023-01-29T17:37:15.970Z,1.55
2023-01-29T17:39:47.418Z,1.29
2023-01-29T17:42:17.855Z,1.46
2023-01-29T17:44:47.871Z,1.45
2023-01-29T17:47:20.515Z,1.63
2023-01-29T17:49:51.210Z,1.37
2023-01-29T17:52:21.257Z,1.18
2023-01-29T17:54:51.315Z,1.24
2023-01-29T17:57:21.306Z,1.21
2023-01-29T17:59:51.364Z,1.19
2023-01-29T18:02:29.511Z,1.03
2023-01-29T18:05:00.112Z,1.01
2023-01-29T18:07:30.412Z,0.95
2023-01-29T18:10:00.558Z,1.03
2023-01-29T18:12:30.616Z,1.18
2023-01-29T18:15:00.777Z,1.24
2023-01-29T18:17:33.704Z,0.99
2023-01-29T18:20:04.185Z,1.08
2023-01-29T18:22:34.225Z,1.00
2023-01-29T18:25:04.300Z,1.01
2023-01-29T18:27:34.332Z,0.97
2023-01-29T18:30:04.957Z,0.95
2023-01-29T18:32:37.600Z,0.84
2023-01-29T18:35:08.839Z,0.94
2023-01-29T18:37:38.851Z,1.14
2023-01-29T18:40:10.372Z,1.06
2023-01-29T18:42:40.329Z,1.10
2023-01-29T18:45:11.412Z,1.01
2023-01-29T18:47:43.987Z,1.16
2023-01-29T18:50:14.894Z,1.01
2023-01-29T18:52:46.248Z,0.75
2023-01-29T18:55:16.492Z,0.75
2023-01-29T18:58:29.179Z,0.76
2023-01-29T19:00:37.893Z,0.83
2023-01-29T19:03:10.521Z,0.75
2023-01-29T19:05:40.549Z,0.89
2023-01-29T19:08:10.485Z,0.91
2023-01-29T19:10:40.659Z,0.99
2023-01-29T19:13:11.283Z,1.04
2023-01-29T19:15:48.158Z,0.98
2023-01-29T19:18:20.732Z,0.74
2023-01-29T19:20:50.597Z,0.84
2023-01-29T19:23:20.578Z,0.80
2023-01-29T19:25:50.638Z,0.78
2023-01-29T19:28:20.465Z,0.67
2023-01-29T19:30:50.502Z,0.72
2023-01-29T19:33:23.037Z,0.63
2023-01-29T19:35:52.917Z,0.55
2023-01-29T19:38:22.835Z,0.80
2023-01-29T19:40:53.016Z,0.71
2023-01-29T19:43:23.107Z,0.54
2023-01-29T19:46:01.141Z,0.65
2023-01-29T19:48:33.709Z,0.65
2023-01-29T19:51:08.426Z,0.76
2023-01-29T19:53:39.273Z,0.66
2023-01-29T19:56:11.812Z,0.75
2023-01-29T19:58:42.466Z,0.68
2023-01-29T20:01:18.450Z,0.57
2023-01-29T20:03:52.310Z,0.84
2023-01-29T20:06:27.678Z,0.65
2023-01-29T20:09:02.631Z,0.53
2023-01-29T20:11:35.504Z,0.62
2023-01-29T20:14:06.001Z,0.58
2023-01-29T20:16:37.032Z,0.49
2023-01-29T20:19:14.636Z,0.44
2023-01-29T20:21:54.558Z,0.37
2023-01-29T20:24:26.611Z,0.56
2023-01-29T20:26:56.612Z,0.54
2023-01-29T20:29:26.804Z,0.43
2023-01-29T20:31:57.339Z,0.46
2023-01-29T20:34:29.924Z,0.43
2023-01-29T20:36:59.915Z,0.36
2023-01-29T20:39:29.888Z,0.33
2023-01-29T20:42:00.114Z,0.37
2023-01-29T20:44:30.229Z,0.44
2023-01-29T20:47:02.668Z,0.43
2023-01-29T20:49:35.232Z,0.38
2023-01-29T20:52:06.092Z,0.31
2023-01-29T20:54:36.135Z,0.14
2023-01-29T20:57:06.326Z,0.09
2023-01-29T20:59:36.202Z,0.24
2023-01-29T21:02:06.093Z,0.16
2023-01-29T21:04:38.577Z,0.06
2023-01-29T21:07:08.493Z,0.09
2023-01-29T21:09:38.445Z,0.14
2023-01-29T21:12:08.864Z,0.19
2023-01-29T21:14:38.775Z,0.06
2023-01-29T21:17:08.741Z,0.19
2023-01-29T21:19:41.286Z,0.14
2023-01-29T21:22:11.554Z,0.17
2023-01-29T21:24:41.491Z,0.11
2023-01-29T21:27:11.847Z,0.17
2023-01-29T21:29:41.712Z,0.15
2023-01-29T21:32:11.753Z,-0.03
2023-01-29T21:34:44.185Z,0.10
2023-01-29T21:37:14.084Z,0.10
2023-01-29T21:39:43.949Z,0.23
2023-01-29T21:42:26.316Z,0.15
2023-01-29T21:44:56.294Z,0.11
2023-01-29T21:47:26.291Z,0.00
2023-01-29T21:49:58.744Z,0.07
2023-01-29T21:52:28.704Z,0.07
2023-01-29T21:54:58.654Z,0.06
2023-01-29T21:57:28.910Z,-0.08
2023-01-29T21:59:59.494Z,-0.08
2023-01-29T22:02:32.306Z,-0.07
2023-01-29T22:05:18.051Z,-0.02
2023-01-29T22:07:50.013Z,-0.06
2023-01-29T22:10:21.768Z,-0.05
2023-01-29T22:12:51.986Z,-0.06
2023-01-29T22:15:23.753Z,-0.05
2023-01-29T22:17:54.139Z,-0.02
2023-01-29T22:20:30.275Z,0.07
2023-01-29T22:23:02.015Z,0.14
2023-01-29T22:25:32.338Z,0.05
2023-01-29T22:28:02.654Z,0.07
2023-01-29T22:30:32.604Z,0.10
2023-01-29T22:33:02.462Z,-0.05
2023-01-29T22:35:34.941Z,-0.04
2023-01-29T22:38:05.448Z,-0.07
2023-01-29T22:40:35.361Z,0.06
2023-01-29T22:43:05.234Z,0.07
2023-01-29T22:45:35.217Z,0.06
2023-01-29T22:48:07.137Z,0.04
2023-01-29T22:50:40.381Z,0.03
2023-01-29T22:53:11.745Z,0.06
2023-01-29T22:55:41.625Z,-0.02
2023-01-29T22:58:11.461Z,-0.07
2023-01-29T23:00:41.326Z,-0.13
2023-01-29T23:03:11.166Z,-0.13
2023-01-29T23:05:43.867Z,-0.02
2023-01-29T23:08:13.718Z,0.00
2023-01-29T23:10:43.730Z,-0.04
2023-01-29T23:13:13.595Z,-0.04
2023-01-29T23:15:45.702Z,-0.08
2023-01-29T23:18:15.612Z,-0.01
2023-01-29T23:20:48.102Z,0.00
2023-01-29T23:23:17.937Z,-0.05
2023-01-29T23:29:43.171Z,-0.05
2023-01-29T23:36:54.500Z,-0.06
2023-01-29T23:39:27.977Z,-0.08
2023-01-29T23:45:25.794Z,-0.27
2023-01-29T23:48:27.917Z,-0.11
2023-01-29T23:54:40.866Z,-0.17
2023-01-29T23:57:33.861Z,-0.14
